sensor_id;sensor_type;location;lat;lon;timestamp;temperature;humidity
30999;DHT22;20549;50.042;8.968;2024-01-10T00:02:21;-2.90;65.10
30999;DHT22;20549;50.042;8.968;2024-01-10T00:04:48;-2.90;65.20
30999;DHT22;20549;50.042;8.968;2024-01-10T00:07:14;-3.00;65.30
30999;DHT22;20549;50.042;8.968;2024-01-10T00:09:41;-3.00;65.40
30999;DHT22;20549;50.042;8.968;2024-01-10T00:12:07;-3.00;65.50
30999;DHT22;20549;50.042;8.968;2024-01-10T00:14:34;-3.10;65.50
30999;DHT22;20549;50.042;8.968;2024-01-10T00:17:01;-3.10;65.50
30999;DHT22;20549;50.042;8.968;2024-01-10T00:19:27;-3.10;65.60
30999;DHT22;20549;50.042;8.968;2024-01-10T00:21:54;-3.10;65.70
30999;DHT22;20549;50.042;8.968;2024-01-10T00:24:20;-3.10;65.90
30999;DHT22;20549;50.042;8.968;2024-01-10T00:26:47;-3.20;65.80
30999;DHT22;20549;50.042;8.968;2024-01-10T00:29:14;-3.20;65.80
30999;DHT22;20549;50.042;8.968;2024-01-10T00:31:40;-3.20;65.70
30999;DHT22;20549;50.042;8.968;2024-01-10T00:34:07;-3.20;65.70
30999;DHT22;20549;50.042;8.968;2024-01-10T00:36:33;-3.20;65.80
30999;DHT22;20549;50.042;8.968;2024-01-10T00:39:00;-3.20;65.80
30999;DHT22;20549;50.042;8.968;2024-01-10T00:41:26;-3.20;65.80
30999;DHT22;20549;50.042;8.968;2024-01-10T00:43:53;-3.20;65.80
30999;DHT22;20549;50.042;8.968;2024-01-10T00:46:20;-3.30;65.80
30999;DHT22;20549;50.042;8.968;2024-01-10T00:48:46;-3.30;65.90
30999;DHT22;20549;50.042;8.968;2024-01-10T00:51:13;-3.30;65.90
30999;DHT22;20549;50.042;8.968;2024-01-10T00:53:39;-3.30;66.00
30999;DHT22;20549;50.042;8.968;2024-01-10T00:56:06;-3.30;66.00
30999;DHT22;20549;50.042;8.968;2024-01-10T00:58:33;-3.30;66.10
30999;DHT22;20549;50.042;8.968;2024-01-10T01:00:59;-3.30;66.10
30999;DHT22;20549;50.042;8.968;2024-01-10T01:03:26;-3.40;66.20
30999;DHT22;20549;50.042;8.968;2024-01-10T01:05:52;-3.40;66.20
30999;DHT22;20549;50.042;8.968;2024-01-10T01:08:19;-3.40;66.30
30999;DHT22;20549;50.042;8.968;2024-01-10T01:10:46;-3.40;66.30
30999;DHT22;20549;50.042;8.968;2024-01-10T01:13:12;-3.40;66.30
30999;DHT22;20549;50.042;8.968;2024-01-10T01:15:39;-3.40;66.20
30999;DHT22;20549;50.042;8.968;2024-01-10T01:18:06;-3.40;66.30
30999;DHT22;20549;50.042;8.968;2024-01-10T01:20:32;-3.40;66.30
30999;DHT22;20549;50.042;8.968;2024-01-10T01:22:59;-3.40;66.40
30999;DHT22;20549;50.042;8.968;2024-01-10T01:25:25;-3.40;66.40
30999;DHT22;20549;50.042;8.968;2024-01-10T01:27:52;-3.50;66.40
30999;DHT22;20549;50.042;8.968;2024-01-10T01:30:18;-3.50;66.40
30999;DHT22;20549;50.042;8.968;2024-01-10T01:32:45;-3.50;66.50
30999;DHT22;20549;50.042;8.968;2024-01-10T01:35:11;-3.50;66.60
30999;DHT22;20549;50.042;8.968;2024-01-10T01:37:38;-3.50;66.50
30999;DHT22;20549;50.042;8.968;2024-01-10T01:40:05;-3.50;65.80
30999;DHT22;20549;50.042;8.968;2024-01-10T01:42:31;-3.60;66.70
30999;DHT22;20549;50.042;8.968;2024-01-10T01:44:58;-3.60;66.70
30999;DHT22;20549;50.042;8.968;2024-01-10T01:47:25;-3.60;66.90
30999;DHT22;20549;50.042;8.968;2024-01-10T01:49:51;-3.60;66.90
30999;DHT22;20549;50.042;8.968;2024-01-10T01:52:18;-3.60;67.00
30999;DHT22;20549;50.042;8.968;2024-01-10T01:54:44;-3.60;67.10
30999;DHT22;20549;50.042;8.968;2024-01-10T01:57:11;-3.60;66.30
30999;DHT22;20549;50.042;8.968;2024-01-10T01:59:38;-3.70;67.20
30999;DHT22;20549;50.042;8.968;2024-01-10T02:02:04;-3.70;67.30
30999;DHT22;20549;50.042;8.968;2024-01-10T02:04:31;-3.70;67.30
30999;DHT22;20549;50.042;8.968;2024-01-10T02:06:57;-3.70;67.50
30999;DHT22;20549;50.042;8.968;2024-01-10T02:09:24;-3.70;67.40
30999;DHT22;20549;50.042;8.968;2024-01-10T02:11:51;-3.70;67.40
30999;DHT22;20549;50.042;8.968;2024-01-10T02:14:17;-3.70;67.50
30999;DHT22;20549;50.042;8.968;2024-01-10T02:16:44;-3.80;67.50
30999;DHT22;20549;50.042;8.968;2024-01-10T02:19:20;-3.80;67.60
30999;DHT22;20549;50.042;8.968;2024-01-10T02:21:46;-3.80;67.70
30999;DHT22;20549;50.042;8.968;2024-01-10T02:24:13;-3.80;67.70
30999;DHT22;20549;50.042;8.968;2024-01-10T02:26:39;-3.80;67.80
30999;DHT22;20549;50.042;8.968;2024-01-10T02:29:06;-3.80;67.80
30999;DHT22;20549;50.042;8.968;2024-01-10T02:31:32;-3.80;67.90
30999;DHT22;20549;50.042;8.968;2024-01-10T02:33:59;-3.80;67.90
30999;DHT22;20549;50.042;8.968;2024-01-10T02:36:26;-3.80;67.90
30999;DHT22;20549;50.042;8.968;2024-01-10T02:38:52;-3.80;68.00
30999;DHT22;20549;50.042;8.968;2024-01-10T02:41:19;-3.80;68.10
30999;DHT22;20549;50.042;8.968;2024-01-10T02:43:45;-3.80;68.10
30999;DHT22;20549;50.042;8.968;2024-01-10T02:46:12;-3.80;68.20
30999;DHT22;20549;50.042;8.968;2024-01-10T02:48:39;-3.80;68.20
30999;DHT22;20549;50.042;8.968;2024-01-10T02:51:05;-3.80;68.20
30999;DHT22;20549;50.042;8.968;2024-01-10T02:53:32;-3.80;68.20
30999;DHT22;20549;50.042;8.968;2024-01-10T02:55:58;-3.80;68.30
30999;DHT22;20549;50.042;8.968;2024-01-10T02:58:25;-3.80;68.20
30999;DHT22;20549;50.042;8.968;2024-01-10T03:00:51;-3.80;68.30
30999;DHT22;20549;50.042;8.968;2024-01-10T03:03:18;-3.80;68.30
30999;DHT22;20549;50.042;8.968;2024-01-10T03:05:45;-3.80;68.90
30999;DHT22;20549;50.042;8.968;2024-01-10T03:08:11;-3.80;68.30
30999;DHT22;20549;50.042;8.968;2024-01-10T03:10:38;-3.80;68.30
30999;DHT22;20549;50.042;8.968;2024-01-10T03:13:04;-3.80;69.10
30999;DHT22;20549;50.042;8.968;2024-01-10T03:15:31;-3.80;68.40
30999;DHT22;20549;50.042;8.968;2024-01-10T03:17:58;-3.80;68.50
30999;DHT22;20549;50.042;8.968;2024-01-10T03:20:24;-3.80;68.50
30999;DHT22;20549;50.042;8.968;2024-01-10T03:22:51;-3.80;68.50
30999;DHT22;20549;50.042;8.968;2024-01-10T03:25:17;-3.80;68.50
30999;DHT22;20549;50.042;8.968;2024-01-10T03:27:44;-3.80;68.50
30999;DHT22;20549;50.042;8.968;2024-01-10T03:30:11;-3.80;68.50
30999;DHT22;20549;50.042;8.968;2024-01-10T03:32:37;-3.80;68.50
30999;DHT22;20549;50.042;8.968;2024-01-10T03:35:04;-3.80;68.60
30999;DHT22;20549;50.042;8.968;2024-01-10T03:37:30;-3.80;68.60
30999;DHT22;20549;50.042;8.968;2024-01-10T03:39:57;-3.80;68.60
30999;DHT22;20549;50.042;8.968;2024-01-10T03:42:24;-3.80;68.60
30999;DHT22;20549;50.042;8.968;2024-01-10T03:44:50;-3.80;68.70
30999;DHT22;20549;50.042;8.968;2024-01-10T03:47:17;-3.80;68.70
30999;DHT22;20549;50.042;8.968;2024-01-10T03:49:43;-3.80;68.70
30999;DHT22;20549;50.042;8.968;2024-01-10T03:52:10;-3.80;68.80
30999;DHT22;20549;50.042;8.968;2024-01-10T03:54:36;-3.70;68.90
30999;DHT22;20549;50.042;8.968;2024-01-10T03:57:03;-3.70;68.90
30999;DHT22;20549;50.042;8.968;2024-01-10T03:59:30;-3.70;68.90
30999;DHT22;20549;50.042;8.968;2024-01-10T04:01:56;-3.70;69.10
30999;DHT22;20549;50.042;8.968;2024-01-10T04:04:23;-3.70;68.90
30999;DHT22;20549;50.042;8.968;2024-01-10T04:06:49;-3.60;68.20
30999;DHT22;20549;50.042;8.968;2024-01-10T04:09:16;-3.60;68.90
30999;DHT22;20549;50.042;8.968;2024-01-10T04:11:43;-3.60;69.00
30999;DHT22;20549;50.042;8.968;2024-01-10T04:14:09;-3.60;68.90
30999;DHT22;20549;50.042;8.968;2024-01-10T04:16:36;-3.60;68.90
30999;DHT22;20549;50.042;8.968;2024-01-10T04:19:02;-3.60;68.90
30999;DHT22;20549;50.042;8.968;2024-01-10T04:21:29;-3.60;68.90
30999;DHT22;20549;50.042;8.968;2024-01-10T04:23:56;-3.50;69.00
30999;DHT22;20549;50.042;8.968;2024-01-10T04:26:22;-3.50;68.90
30999;DHT22;20549;50.042;8.968;2024-01-10T04:28:49;-3.50;69.00
30999;DHT22;20549;50.042;8.968;2024-01-10T04:33:50;-3.50;68.90
30999;DHT22;20549;50.042;8.968;2024-01-10T04:36:17;-3.50;69.10
30999;DHT22;20549;50.042;8.968;2024-01-10T04:38:43;-3.40;69.10
30999;DHT22;20549;50.042;8.968;2024-01-10T04:41:10;-3.40;69.00
30999;DHT22;20549;50.042;8.968;2024-01-10T04:43:36;-3.40;68.90
30999;DHT22;20549;50.042;8.968;2024-01-10T04:46:03;-3.40;69.00
30999;DHT22;20549;50.042;8.968;2024-01-10T04:48:30;-3.40;69.10
30999;DHT22;20549;50.042;8.968;2024-01-10T04:50:56;-3.40;69.10
30999;DHT22;20549;50.042;8.968;2024-01-10T04:53:23;-3.30;69.10
30999;DHT22;20549;50.042;8.968;2024-01-10T04:55:49;-3.30;69.10
30999;DHT22;20549;50.042;8.968;2024-01-10T04:58:16;-3.30;69.10
30999;DHT22;20549;50.042;8.968;2024-01-10T05:00:43;-3.30;69.10
30999;DHT22;20549;50.042;8.968;2024-01-10T05:03:09;-3.30;69.10
30999;DHT22;20549;50.042;8.968;2024-01-10T05:05:36;-3.30;69.10
30999;DHT22;20549;50.042;8.968;2024-01-10T05:08:02;-3.20;69.20
30999;DHT22;20549;50.042;8.968;2024-01-10T05:10:29;-3.20;69.10
30999;DHT22;20549;50.042;8.968;2024-01-10T05:12:56;-3.20;69.20
30999;DHT22;20549;50.042;8.968;2024-01-10T05:15:22;-3.20;69.10
30999;DHT22;20549;50.042;8.968;2024-01-10T05:17:49;-3.20;69.20
30999;DHT22;20549;50.042;8.968;2024-01-10T05:20:15;-3.20;69.10
30999;DHT22;20549;50.042;8.968;2024-01-10T05:22:42;-3.20;69.10
30999;DHT22;20549;50.042;8.968;2024-01-10T05:25:09;-3.20;69.10
30999;DHT22;20549;50.042;8.968;2024-01-10T05:27:35;-3.20;69.10
30999;DHT22;20549;50.042;8.968;2024-01-10T05:30:02;-3.20;69.10
30999;DHT22;20549;50.042;8.968;2024-01-10T05:32:28;-3.20;69.60
30999;DHT22;20549;50.042;8.968;2024-01-10T05:34:55;-3.20;69.10
30999;DHT22;20549;50.042;8.968;2024-01-10T05:37:21;-3.20;69.10
30999;DHT22;20549;50.042;8.968;2024-01-10T05:39:48;-3.30;68.90
30999;DHT22;20549;50.042;8.968;2024-01-10T05:42:15;-3.30;69.00
30999;DHT22;20549;50.042;8.968;2024-01-10T05:44:41;-3.20;69.10
30999;DHT22;20549;50.042;8.968;2024-01-10T05:47:08;-3.30;68.80
30999;DHT22;20549;50.042;8.968;2024-01-10T05:49:34;-3.30;69.10
30999;DHT22;20549;50.042;8.968;2024-01-10T05:52:01;-3.30;69.10
30999;DHT22;20549;50.042;8.968;2024-01-10T05:54:28;-3.30;69.10
30999;DHT22;20549;50.042;8.968;2024-01-10T05:56:54;-3.30;69.10
30999;DHT22;20549;50.042;8.968;2024-01-10T05:59:22;-3.30;69.10
30999;DHT22;20549;50.042;8.968;2024-01-10T06:01:48;-3.30;69.10
30999;DHT22;20549;50.042;8.968;2024-01-10T06:04:15;-3.30;69.10
30999;DHT22;20549;50.042;8.968;2024-01-10T06:06:42;-3.30;69.10
30999;DHT22;20549;50.042;8.968;2024-01-10T06:09:08;-3.30;69.10
30999;DHT22;20549;50.042;8.968;2024-01-10T06:11:39;-3.40;69.10
30999;DHT22;20549;50.042;8.968;2024-01-10T06:14:01;-3.40;68.90
30999;DHT22;20549;50.042;8.968;2024-01-10T06:16:28;-3.40;68.90
30999;DHT22;20549;50.042;8.968;2024-01-10T06:18:55;-3.40;68.80
30999;DHT22;20549;50.042;8.968;2024-01-10T06:21:21;-3.40;68.80
30999;DHT22;20549;50.042;8.968;2024-01-10T06:23:50;-3.40;68.90
30999;DHT22;20549;50.042;8.968;2024-01-10T06:26:17;-3.40;68.90
30999;DHT22;20549;50.042;8.968;2024-01-10T06:28:44;-3.40;68.90
30999;DHT22;20549;50.042;8.968;2024-01-10T06:31:10;-3.40;69.00
30999;DHT22;20549;50.042;8.968;2024-01-10T06:33:37;-3.40;69.10
30999;DHT22;20549;50.042;8.968;2024-01-10T06:36:03;-3.40;69.10
30999;DHT22;20549;50.042;8.968;2024-01-10T06:38:30;-3.40;69.20
30999;DHT22;20549;50.042;8.968;2024-01-10T06:40:56;-3.50;69.10
30999;DHT22;20549;50.042;8.968;2024-01-10T06:43:23;-3.50;69.20
30999;DHT22;20549;50.042;8.968;2024-01-10T06:45:50;-3.50;69.30
30999;DHT22;20549;50.042;8.968;2024-01-10T06:48:16;-3.50;69.20
30999;DHT22;20549;50.042;8.968;2024-01-10T06:50:43;-3.50;69.40
30999;DHT22;20549;50.042;8.968;2024-01-10T06:53:09;-3.50;69.40
30999;DHT22;20549;50.042;8.968;2024-01-10T06:55:36;-3.50;69.50
30999;DHT22;20549;50.042;8.968;2024-01-10T06:58:03;-3.50;69.40
30999;DHT22;20549;50.042;8.968;2024-01-10T07:00:29;-3.50;69.60
30999;DHT22;20549;50.042;8.968;2024-01-10T07:02:56;-3.50;69.60
30999;DHT22;20549;50.042;8.968;2024-01-10T07:05:22;-3.50;69.70
30999;DHT22;20549;50.042;8.968;2024-01-10T07:07:49;-3.50;69.60
30999;DHT22;20549;50.042;8.968;2024-01-10T07:10:16;-3.50;68.90
30999;DHT22;20549;50.042;8.968;2024-01-10T07:12:42;-3.50;69.70
30999;DHT22;20549;50.042;8.968;2024-01-10T07:15:09;-3.50;69.70
30999;DHT22;20549;50.042;8.968;2024-01-10T07:17:35;-3.50;69.80
30999;DHT22;20549;50.042;8.968;2024-01-10T07:20:02;-3.40;69.80
30999;DHT22;20549;50.042;8.968;2024-01-10T07:22:29;-3.40;69.90
30999;DHT22;20549;50.042;8.968;2024-01-10T07:24:55;-3.40;69.80
30999;DHT22;20549;50.042;8.968;2024-01-10T07:27:22;-3.40;69.80
30999;DHT22;20549;50.042;8.968;2024-01-10T07:29:48;-3.40;69.90
30999;DHT22;20549;50.042;8.968;2024-01-10T07:32:15;-3.40;69.70
30999;DHT22;20549;50.042;8.968;2024-01-10T07:34:41;-3.40;69.70
30999;DHT22;20549;50.042;8.968;2024-01-10T07:37:08;-3.30;69.90
30999;DHT22;20549;50.042;8.968;2024-01-10T07:39:35;-3.30;70.50
30999;DHT22;20549;50.042;8.968;2024-01-10T07:42:01;-3.30;69.80
30999;DHT22;20549;50.042;8.968;2024-01-10T07:44:28;-3.20;69.90
30999;DHT22;20549;50.042;8.968;2024-01-10T07:46:54;-3.10;70.90
30999;DHT22;20549;50.042;8.968;2024-01-10T07:49:21;-3.00;70.40
30999;DHT22;20549;50.042;8.968;2024-01-10T07:51:48;-2.90;70.60
30999;DHT22;20549;50.042;8.968;2024-01-10T07:54:14;-2.80;70.50
30999;DHT22;20549;50.042;8.968;2024-01-10T07:56:41;-2.70;70.40
30999;DHT22;20549;50.042;8.968;2024-01-10T07:59:07;-2.50;70.30
30999;DHT22;20549;50.042;8.968;2024-01-10T08:01:34;-2.50;70.20
30999;DHT22;20549;50.042;8.968;2024-01-10T08:04:01;-2.40;70.00
30999;DHT22;20549;50.042;8.968;2024-01-10T08:06:27;-2.30;70.10
30999;DHT22;20549;50.042;8.968;2024-01-10T08:08:54;-2.30;69.80
30999;DHT22;20549;50.042;8.968;2024-01-10T08:11:20;-2.20;69.80
30999;DHT22;20549;50.042;8.968;2024-01-10T08:13:47;-2.10;69.80
30999;DHT22;20549;50.042;8.968;2024-01-10T08:16:14;-2.00;69.90
30999;DHT22;20549;50.042;8.968;2024-01-10T08:18:40;-1.90;70.00
30999;DHT22;20549;50.042;8.968;2024-01-10T08:21:07;-1.70;70.30
30999;DHT22;20549;50.042;8.968;2024-01-10T08:23:33;-1.60;70.40
30999;DHT22;20549;50.042;8.968;2024-01-10T08:26:00;-1.40;70.40
30999;DHT22;20549;50.042;8.968;2024-01-10T08:28:27;-1.30;70.30
30999;DHT22;20549;50.042;8.968;2024-01-10T08:30:53;-1.20;70.00
30999;DHT22;20549;50.042;8.968;2024-01-10T08:33:20;-1.10;69.80
30999;DHT22;20549;50.042;8.968;2024-01-10T08:35:46;-1.00;69.60
30999;DHT22;20549;50.042;8.968;2024-01-10T08:38:13;-0.90;69.40
30999;DHT22;20549;50.042;8.968;2024-01-10T08:40:39;-0.80;69.20
30999;DHT22;20549;50.042;8.968;2024-01-10T08:43:06;-0.80;69.10
30999;DHT22;20549;50.042;8.968;2024-01-10T08:45:33;-0.70;69.10
30999;DHT22;20549;50.042;8.968;2024-01-10T08:47:59;-0.60;69.00
30999;DHT22;20549;50.042;8.968;2024-01-10T08:50:26;-0.60;68.90
30999;DHT22;20549;50.042;8.968;2024-01-10T08:52:52;-0.50;68.80
30999;DHT22;20549;50.042;8.968;2024-01-10T08:55:19;-0.50;68.80
30999;DHT22;20549;50.042;8.968;2024-01-10T08:57:46;-0.50;68.60
30999;DHT22;20549;50.042;8.968;2024-01-10T09:00:14;-0.50;68.60
30999;DHT22;20549;50.042;8.968;2024-01-10T09:02:39;-0.40;68.50
30999;DHT22;20549;50.042;8.968;2024-01-10T09:05:06;-0.40;68.50
30999;DHT22;20549;50.042;8.968;2024-01-10T09:07:32;-0.40;68.40
30999;DHT22;20549;50.042;8.968;2024-01-10T09:09:59;-0.40;68.30
30999;DHT22;20549;50.042;8.968;2024-01-10T09:12:25;-0.40;68.30
30999;DHT22;20549;50.042;8.968;2024-01-10T09:14:52;-0.30;68.30
30999;DHT22;20549;50.042;8.968;2024-01-10T09:17:19;-0.30;68.30
30999;DHT22;20549;50.042;8.968;2024-01-10T09:19:45;-0.30;68.30
30999;DHT22;20549;50.042;8.968;2024-01-10T09:22:12;-0.20;68.40
30999;DHT22;20549;50.042;8.968;2024-01-10T09:24:38;-0.20;68.40
30999;DHT22;20549;50.042;8.968;2024-01-10T09:27:05;-0.10;68.50
30999;DHT22;20549;50.042;8.968;2024-01-10T09:29:32;-0.10;68.50
30999;DHT22;20549;50.042;8.968;2024-01-10T09:31:58;-0.10;68.50
30999;DHT22;20549;50.042;8.968;2024-01-10T09:34:25;0.00;68.50
30999;DHT22;20549;50.042;8.968;2024-01-10T09:36:51;0.10;68.60
30999;DHT22;20549;50.042;8.968;2024-01-10T09:39:18;0.10;68.50
30999;DHT22;20549;50.042;8.968;2024-01-10T09:41:48;0.20;68.50
30999;DHT22;20549;50.042;8.968;2024-01-10T09:44:20;0.30;68.50
30999;DHT22;20549;50.042;8.968;2024-01-10T09:46:52;0.30;68.50
30999;DHT22;20549;50.042;8.968;2024-01-10T09:49:18;0.40;68.40
30999;DHT22;20549;50.042;8.968;2024-01-10T09:51:45;0.50;68.30
30999;DHT22;20549;50.042;8.968;2024-01-10T09:54:11;0.50;68.20
30999;DHT22;20549;50.042;8.968;2024-01-10T09:56:38;0.60;68.00
30999;DHT22;20549;50.042;8.968;2024-01-10T09:59:05;0.60;67.80
30999;DHT22;20549;50.042;8.968;2024-01-10T10:01:31;0.60;67.70
30999;DHT22;20549;50.042;8.968;2024-01-10T10:03:58;0.60;67.60
30999;DHT22;20549;50.042;8.968;2024-01-10T10:06:24;0.60;67.50
30999;DHT22;20549;50.042;8.968;2024-01-10T10:08:51;0.60;67.50
30999;DHT22;20549;50.042;8.968;2024-01-10T10:11:17;0.60;67.50
30999;DHT22;20549;50.042;8.968;2024-01-10T10:13:44;0.60;67.50
30999;DHT22;20549;50.042;8.968;2024-01-10T10:16:11;0.70;67.60
30999;DHT22;20549;50.042;8.968;2024-01-10T10:18:37;0.70;67.60
30999;DHT22;20549;50.042;8.968;2024-01-10T10:21:08;0.70;67.70
30999;DHT22;20549;50.042;8.968;2024-01-10T10:23:34;0.80;67.60
30999;DHT22;20549;50.042;8.968;2024-01-10T10:26:02;0.80;67.60
30999;DHT22;20549;50.042;8.968;2024-01-10T10:28:29;0.90;67.80
30999;DHT22;20549;50.042;8.968;2024-01-10T10:30:56;0.90;67.70
30999;DHT22;20549;50.042;8.968;2024-01-10T10:33:23;1.00;67.60
30999;DHT22;20549;50.042;8.968;2024-01-10T10:35:49;1.00;67.60
30999;DHT22;20549;50.042;8.968;2024-01-10T10:38:16;1.10;67.60
30999;DHT22;20549;50.042;8.968;2024-01-10T10:40:42;1.20;67.60
30999;DHT22;20549;50.042;8.968;2024-01-10T10:43:12;1.20;67.50
30999;DHT22;20549;50.042;8.968;2024-01-10T10:45:36;1.30;67.50
30999;DHT22;20549;50.042;8.968;2024-01-10T10:48:02;1.30;67.30
30999;DHT22;20549;50.042;8.968;2024-01-10T10:50:32;1.40;67.30
30999;DHT22;20549;50.042;8.968;2024-01-10T10:52:55;1.40;67.20
30999;DHT22;20549;50.042;8.968;2024-01-10T10:55:22;1.50;67.10
30999;DHT22;20549;50.042;8.968;2024-01-10T10:57:49;1.50;67.00
30999;DHT22;20549;50.042;8.968;2024-01-10T11:00:18;1.60;67.00
30999;DHT22;20549;50.042;8.968;2024-01-10T11:02:42;1.60;66.80
30999;DHT22;20549;50.042;8.968;2024-01-10T11:05:08;1.70;66.80
30999;DHT22;20549;50.042;8.968;2024-01-10T11:07:35;1.70;67.00
30999;DHT22;20549;50.042;8.968;2024-01-10T11:10:02;1.80;66.90
30999;DHT22;20549;50.042;8.968;2024-01-10T11:21:02;2.10;66.90
30999;DHT22;20549;50.042;8.968;2024-01-10T11:23:37;2.10;66.90
30999;DHT22;20549;50.042;8.968;2024-01-10T11:25:59;2.20;67.10
30999;DHT22;20549;50.042;8.968;2024-01-10T11:28:26;2.40;67.20
30999;DHT22;20549;50.042;8.968;2024-01-10T11:30:53;2.50;67.40
30999;DHT22;20549;50.042;8.968;2024-01-10T11:33:20;2.60;67.30
30999;DHT22;20549;50.042;8.968;2024-01-10T11:41:35;3.10;66.70
30999;DHT22;20549;50.042;8.968;2024-01-10T11:43:39;3.20;66.30
30999;DHT22;20549;50.042;8.968;2024-01-10T11:46:06;3.20;65.80
30999;DHT22;20549;50.042;8.968;2024-01-10T11:48:32;3.20;65.40
30999;DHT22;20549;50.042;8.968;2024-01-10T11:50:59;3.20;65.00
30999;DHT22;20549;50.042;8.968;2024-01-10T11:53:40;3.20;64.80
30999;DHT22;20549;50.042;8.968;2024-01-10T11:56:11;3.10;64.70
30999;DHT22;20549;50.042;8.968;2024-01-10T11:58:55;3.10;64.80
30999;DHT22;20549;50.042;8.968;2024-01-10T12:01:19;3.10;64.60
30999;DHT22;20549;50.042;8.968;2024-01-10T12:03:45;3.00;64.60
30999;DHT22;20549;50.042;8.968;2024-01-10T12:06:12;2.90;64.60
30999;DHT22;20549;50.042;8.968;2024-01-10T12:08:38;2.90;64.60
30999;DHT22;20549;50.042;8.968;2024-01-10T12:11:05;2.90;64.70
30999;DHT22;20549;50.042;8.968;2024-01-10T12:13:31;2.90;64.70
30999;DHT22;20549;50.042;8.968;2024-01-10T12:15:58;2.90;64.70
30999;DHT22;20549;50.042;8.968;2024-01-10T12:18:25;2.90;64.80
30999;DHT22;20549;50.042;8.968;2024-01-10T12:20:51;3.00;64.90
30999;DHT22;20549;50.042;8.968;2024-01-10T12:23:18;3.00;64.90
30999;DHT22;20549;50.042;8.968;2024-01-10T12:25:44;3.00;64.90
30999;DHT22;20549;50.042;8.968;2024-01-10T12:28:15;3.10;64.90
30999;DHT22;20549;50.042;8.968;2024-01-10T12:30:37;3.10;64.80
30999;DHT22;20549;50.042;8.968;2024-01-10T12:33:04;3.20;64.90
30999;DHT22;20549;50.042;8.968;2024-01-10T12:35:31;3.20;64.70
30999;DHT22;20549;50.042;8.968;2024-01-10T12:37:57;3.30;64.60
30999;DHT22;20549;50.042;8.968;2024-01-10T12:40:24;3.30;64.60
30999;DHT22;20549;50.042;8.968;2024-01-10T12:43:01;3.40;64.60
30999;DHT22;20549;50.042;8.968;2024-01-10T12:45:20;3.40;64.70
30999;DHT22;20549;50.042;8.968;2024-01-10T12:47:46;3.50;64.60
30999;DHT22;20549;50.042;8.968;2024-01-10T12:50:13;3.50;64.80
30999;DHT22;20549;50.042;8.968;2024-01-10T12:52:42;3.60;64.70
30999;DHT22;20549;50.042;8.968;2024-01-10T12:55:09;3.70;64.60
30999;DHT22;20549;50.042;8.968;2024-01-10T12:57:35;3.70;64.50
30999;DHT22;20549;50.042;8.968;2024-01-10T13:00:02;3.80;64.50
30999;DHT22;20549;50.042;8.968;2024-01-10T13:02:35;3.80;64.30
30999;DHT22;20549;50.042;8.968;2024-01-10T13:05:00;3.90;64.00
30999;DHT22;20549;50.042;8.968;2024-01-10T13:07:27;3.90;63.90
30999;DHT22;20549;50.042;8.968;2024-01-10T13:09:54;3.90;63.60
30999;DHT22;20549;50.042;8.968;2024-01-10T13:12:20;3.90;63.40
30999;DHT22;20549;50.042;8.968;2024-01-10T13:14:47;3.90;64.00
30999;DHT22;20549;50.042;8.968;2024-01-10T13:17:13;3.90;63.10
30999;DHT22;20549;50.042;8.968;2024-01-10T13:19:40;3.80;62.90
30999;DHT22;20549;50.042;8.968;2024-01-10T13:22:06;3.70;62.90
30999;DHT22;20549;50.042;8.968;2024-01-10T13:24:33;3.70;63.10
30999;DHT22;20549;50.042;8.968;2024-01-10T13:27:00;3.60;62.90
30999;DHT22;20549;50.042;8.968;2024-01-10T13:29:26;3.60;62.80
30999;DHT22;20549;50.042;8.968;2024-01-10T13:31:53;3.50;62.90
30999;DHT22;20549;50.042;8.968;2024-01-10T13:34:19;3.50;62.80
30999;DHT22;20549;50.042;8.968;2024-01-10T13:36:46;3.40;62.80
30999;DHT22;20549;50.042;8.968;2024-01-10T13:39:13;3.40;62.90
30999;DHT22;20549;50.042;8.968;2024-01-10T13:41:39;3.30;63.10
30999;DHT22;20549;50.042;8.968;2024-01-10T13:44:06;3.30;62.90
30999;DHT22;20549;50.042;8.968;2024-01-10T13:46:32;3.30;63.10
30999;DHT22;20549;50.042;8.968;2024-01-10T13:48:59;3.20;63.00
30999;DHT22;20549;50.042;8.968;2024-01-10T13:51:26;3.20;62.90
30999;DHT22;20549;50.042;8.968;2024-01-10T13:53:52;3.20;62.80
30999;DHT22;20549;50.042;8.968;2024-01-10T13:56:19;3.20;62.80
30999;DHT22;20549;50.042;8.968;2024-01-10T13:58:45;3.10;62.80
30999;DHT22;20549;50.042;8.968;2024-01-10T14:01:12;3.10;62.80
30999;DHT22;20549;50.042;8.968;2024-01-10T14:03:38;3.10;63.00
30999;DHT22;20549;50.042;8.968;2024-01-10T14:06:05;3.00;62.90
30999;DHT22;20549;50.042;8.968;2024-01-10T14:08:32;3.00;63.10
30999;DHT22;20549;50.042;8.968;2024-01-10T14:10:58;3.00;63.00
30999;DHT22;20549;50.042;8.968;2024-01-10T14:13:25;3.00;63.00
30999;DHT22;20549;50.042;8.968;2024-01-10T14:15:51;3.00;63.10
30999;DHT22;20549;50.042;8.968;2024-01-10T14:18:21;3.00;63.10
30999;DHT22;20549;50.042;8.968;2024-01-10T14:20:48;2.90;63.00
30999;DHT22;20549;50.042;8.968;2024-01-10T14:23:14;2.90;63.20
30999;DHT22;20549;50.042;8.968;2024-01-10T14:25:41;2.90;63.10
30999;DHT22;20549;50.042;8.968;2024-01-10T14:28:07;2.90;63.20
30999;DHT22;20549;50.042;8.968;2024-01-10T14:30:34;2.90;63.20
30999;DHT22;20549;50.042;8.968;2024-01-10T14:33:01;2.90;63.20
30999;DHT22;20549;50.042;8.968;2024-01-10T14:35:27;2.90;63.20
30999;DHT22;20549;50.042;8.968;2024-01-10T14:37:54;2.90;63.20
30999;DHT22;20549;50.042;8.968;2024-01-10T14:40:20;2.90;63.30
30999;DHT22;20549;50.042;8.968;2024-01-10T14:42:47;2.90;63.30
30999;DHT22;20549;50.042;8.968;2024-01-10T14:45:14;2.90;63.40
30999;DHT22;20549;50.042;8.968;2024-01-10T14:47:40;2.90;63.20
30999;DHT22;20549;50.042;8.968;2024-01-10T14:50:07;2.90;63.40
30999;DHT22;20549;50.042;8.968;2024-01-10T14:52:33;2.80;63.20
30999;DHT22;20549;50.042;8.968;2024-01-10T14:55:00;2.80;63.20
30999;DHT22;20549;50.042;8.968;2024-01-10T14:57:27;2.80;63.20
30999;DHT22;20549;50.042;8.968;2024-01-10T14:59:53;2.80;63.30
30999;DHT22;20549;50.042;8.968;2024-01-10T15:02:20;2.80;63.30
30999;DHT22;20549;50.042;8.968;2024-01-10T15:04:46;2.80;63.40
30999;DHT22;20549;50.042;8.968;2024-01-10T15:07:13;2.80;63.40
30999;DHT22;20549;50.042;8.968;2024-01-10T15:09:41;2.80;63.50
30999;DHT22;20549;50.042;8.968;2024-01-10T15:12:06;2.70;63.50
30999;DHT22;20549;50.042;8.968;2024-01-10T15:14:35;2.70;63.50
30999;DHT22;20549;50.042;8.968;2024-01-10T15:17:03;2.70;63.60
30999;DHT22;20549;50.042;8.968;2024-01-10T15:19:28;2.70;63.60
30999;DHT22;20549;50.042;8.968;2024-01-10T15:21:55;2.70;63.70
30999;DHT22;20549;50.042;8.968;2024-01-10T15:24:22;2.60;63.70
30999;DHT22;20549;50.042;8.968;2024-01-10T15:26:49;2.60;63.70
30999;DHT22;20549;50.042;8.968;2024-01-10T15:29:15;2.60;63.80
30999;DHT22;20549;50.042;8.968;2024-01-10T15:31:41;2.50;63.80
30999;DHT22;20549;50.042;8.968;2024-01-10T15:34:08;2.50;63.90
30999;DHT22;20549;50.042;8.968;2024-01-10T15:36:39;2.40;63.90
30999;DHT22;20549;50.042;8.968;2024-01-10T15:39:01;2.40;63.90
30999;DHT22;20549;50.042;8.968;2024-01-10T15:41:28;2.30;64.00
30999;DHT22;20549;50.042;8.968;2024-01-10T15:43:54;2.30;64.10
30999;DHT22;20549;50.042;8.968;2024-01-10T15:46:21;2.20;64.10
30999;DHT22;20549;50.042;8.968;2024-01-10T15:48:47;2.20;64.20
30999;DHT22;20549;50.042;8.968;2024-01-10T15:51:14;2.10;64.30